sensor_id;sensor_type;location;lat;lon;timestamp;P1;durP1;ratioP1;P2;durP2;ratioP2
16906;SDS011;8570;52.380;4.654;2023-09-19T00:04:47;7.18;;;2.20;;
16906;SDS011;8570;52.380;4.654;2023-09-19T00:09:50;9.57;;;2.42;;
16906;SDS011;8570;52.380;4.654;2023-09-19T00:14:53;8.70;;;2.42;;
16906;SDS011;8570;52.380;4.654;2023-09-19T00:19:56;7.57;;;1.88;;
16906;SDS011;8570;52.380;4.654;2023-09-19T00:24:58;9.85;;;2.10;;
16906;SDS011;8570;52.380;4.654;2023-09-19T00:30:02;8.98;;;1.98;;
16906;SDS011;8570;52.380;4.654;2023-09-19T00:35:05;10.32;;;2.60;;
16906;SDS011;8570;52.380;4.654;2023-09-19T00:40:09;12.35;;;2.50;;
16906;SDS011;8570;52.380;4.654;2023-09-19T00:45:14;8.18;;;1.85;;
16906;SDS011;8570;52.380;4.654;2023-09-19T00:50:18;7.55;;;2.08;;
16906;SDS011;8570;52.380;4.654;2023-09-19T00:55:22;8.07;;;2.10;;
16906;SDS011;8570;52.380;4.654;2023-09-19T01:00:27;9.93;;;2.22;;
16906;SDS011;8570;52.380;4.654;2023-09-19T01:05:31;8.98;;;2.33;;
16906;SDS011;8570;52.380;4.654;2023-09-19T01:10:32;11.90;;;2.58;;
16906;SDS011;8570;52.380;4.654;2023-09-19T01:15:40;8.10;;;2.17;;
16906;SDS011;8570;52.380;4.654;2023-09-19T01:20:53;12.55;;;3.05;;
16906;SDS011;8570;52.380;4.654;2023-09-19T01:26:07;7.05;;;2.03;;
16906;SDS011;8570;52.380;4.654;2023-09-19T01:31:21;6.72;;;2.05;;
16906;SDS011;8570;52.380;4.654;2023-09-19T01:36:25;12.68;;;3.00;;
16906;SDS011;8570;52.380;4.654;2023-09-19T01:41:41;15.88;;;2.97;;
16906;SDS011;8570;52.380;4.654;2023-09-19T01:46:57;11.40;;;2.42;;
16906;SDS011;8570;52.380;4.654;2023-09-19T01:52:05;9.23;;;2.55;;
16906;SDS011;8570;52.380;4.654;2023-09-19T01:57:15;14.15;;;2.70;;
16906;SDS011;8570;52.380;4.654;2023-09-19T02:02:23;9.30;;;2.28;;
16906;SDS011;8570;52.380;4.654;2023-09-19T02:07:26;9.63;;;2.17;;
16906;SDS011;8570;52.380;4.654;2023-09-19T02:12:29;11.88;;;2.33;;
16906;SDS011;8570;52.380;4.654;2023-09-19T02:17:34;17.48;;;3.00;;
16906;SDS011;8570;52.380;4.654;2023-09-19T02:22:36;12.75;;;2.65;;
16906;SDS011;8570;52.380;4.654;2023-09-19T02:27:39;8.18;;;2.20;;
16906;SDS011;8570;52.380;4.654;2023-09-19T02:32:42;9.13;;;2.03;;
16906;SDS011;8570;52.380;4.654;2023-09-19T02:37:45;4.35;;;1.80;;
16906;SDS011;8570;52.380;4.654;2023-09-19T02:42:47;8.50;;;2.22;;
16906;SDS011;8570;52.380;4.654;2023-09-19T02:47:51;9.85;;;2.55;;
16906;SDS011;8570;52.380;4.654;2023-09-19T02:52:53;12.82;;;2.42;;
16906;SDS011;8570;52.380;4.654;2023-09-19T02:57:55;8.30;;;2.53;;
16906;SDS011;8570;52.380;4.654;2023-09-19T03:02:59;8.73;;;2.58;;
16906;SDS011;8570;52.380;4.654;2023-09-19T03:08:01;7.82;;;2.30;;
16906;SDS011;8570;52.380;4.654;2023-09-19T03:13:03;15.93;;;2.90;;
16906;SDS011;8570;52.380;4.654;2023-09-19T03:18:07;12.70;;;2.50;;
16906;SDS011;8570;52.380;4.654;2023-09-19T03:23:09;13.93;;;3.15;;
16906;SDS011;8570;52.380;4.654;2023-09-19T03:28:13;9.77;;;2.30;;
16906;SDS011;8570;52.380;4.654;2023-09-19T03:33:17;14.50;;;2.53;;
16906;SDS011;8570;52.380;4.654;2023-09-19T03:38:20;12.57;;;2.92;;
16906;SDS011;8570;52.380;4.654;2023-09-19T03:43:22;7.07;;;1.85;;
16906;SDS011;8570;52.380;4.654;2023-09-19T03:48:26;6.18;;;2.03;;
16906;SDS011;8570;52.380;4.654;2023-09-19T03:53:28;9.13;;;2.30;;
16906;SDS011;8570;52.380;4.654;2023-09-19T03:58:30;10.90;;;2.08;;
16906;SDS011;8570;52.380;4.654;2023-09-19T04:03:33;15.13;;;2.67;;
16906;SDS011;8570;52.380;4.654;2023-09-19T04:08:46;9.95;;;2.92;;
16906;SDS011;8570;52.380;4.654;2023-09-19T04:13:48;12.70;;;3.25;;
16906;SDS011;8570;52.380;4.654;2023-09-19T04:18:51;12.25;;;2.30;;
16906;SDS011;8570;52.380;4.654;2023-09-19T04:23:53;8.07;;;2.35;;
16906;SDS011;8570;52.380;4.654;2023-09-19T04:28:55;10.57;;;2.58;;
16906;SDS011;8570;52.380;4.654;2023-09-19T04:33:58;11.75;;;2.72;;
16906;SDS011;8570;52.380;4.654;2023-09-19T04:39:03;8.48;;;2.30;;
16906;SDS011;8570;52.380;4.654;2023-09-19T04:44:07;12.15;;;2.03;;
16906;SDS011;8570;52.380;4.654;2023-09-19T04:49:10;11.15;;;2.22;;
16906;SDS011;8570;52.380;4.654;2023-09-19T04:54:12;11.13;;;2.40;;
16906;SDS011;8570;52.380;4.654;2023-09-19T04:59:16;7.20;;;2.20;;
16906;SDS011;8570;52.380;4.654;2023-09-19T05:04:19;9.65;;;2.42;;
16906;SDS011;8570;52.380;4.654;2023-09-19T05:09:21;9.63;;;2.33;;
16906;SDS011;8570;52.380;4.654;2023-09-19T05:14:23;13.93;;;2.67;;
16906;SDS011;8570;52.380;4.654;2023-09-19T05:19:26;14.73;;;2.65;;
16906;SDS011;8570;52.380;4.654;2023-09-19T05:24:28;11.90;;;2.60;;
16906;SDS011;8570;52.380;4.654;2023-09-19T05:29:31;10.35;;;2.63;;
16906;SDS011;8570;52.380;4.654;2023-09-19T05:34:34;12.73;;;2.88;;
16906;SDS011;8570;52.380;4.654;2023-09-19T05:39:36;13.27;;;3.17;;
16906;SDS011;8570;52.380;4.654;2023-09-19T05:44:38;10.90;;;3.13;;
16906;SDS011;8570;52.380;4.654;2023-09-19T05:49:42;13.32;;;2.88;;
16906;SDS011;8570;52.380;4.654;2023-09-19T05:54:44;16.05;;;3.10;;
16906;SDS011;8570;52.380;4.654;2023-09-19T05:59:46;14.80;;;3.05;;
16906;SDS011;8570;52.380;4.654;2023-09-19T06:04:50;14.55;;;3.00;;
16906;SDS011;8570;52.380;4.654;2023-09-19T06:09:53;13.93;;;3.53;;
16906;SDS011;8570;52.380;4.654;2023-09-19T06:14:55;16.52;;;3.25;;
16906;SDS011;8570;52.380;4.654;2023-09-19T06:19:58;15.85;;;3.55;;
16906;SDS011;8570;52.380;4.654;2023-09-19T06:25:00;13.70;;;2.97;;
16906;SDS011;8570;52.380;4.654;2023-09-19T06:30:02;15.68;;;3.63;;
16906;SDS011;8570;52.380;4.654;2023-09-19T06:35:09;13.13;;;3.13;;
16906;SDS011;8570;52.380;4.654;2023-09-19T06:40:12;17.85;;;3.58;;
16906;SDS011;8570;52.380;4.654;2023-09-19T06:45:15;13.20;;;3.60;;
16906;SDS011;8570;52.380;4.654;2023-09-19T06:50:21;21.77;;;3.47;;
16906;SDS011;8570;52.380;4.654;2023-09-19T06:55:23;10.75;;;3.03;;
16906;SDS011;8570;52.380;4.654;2023-09-19T07:00:27;17.85;;;3.20;;
16906;SDS011;8570;52.380;4.654;2023-09-19T07:05:34;13.88;;;3.03;;
16906;SDS011;8570;52.380;4.654;2023-09-19T07:10:37;15.57;;;3.42;;
16906;SDS011;8570;52.380;4.654;2023-09-19T07:15:40;12.38;;;3.00;;
16906;SDS011;8570;52.380;4.654;2023-09-19T07:20:48;15.70;;;3.17;;
16906;SDS011;8570;52.380;4.654;2023-09-19T07:25:50;15.75;;;4.10;;
16906;SDS011;8570;52.380;4.654;2023-09-19T07:30:52;9.60;;;2.88;;
16906;SDS011;8570;52.380;4.654;2023-09-19T07:35:55;18.05;;;3.80;;
16906;SDS011;8570;52.380;4.654;2023-09-19T07:40:59;18.52;;;3.33;;
16906;SDS011;8570;52.380;4.654;2023-09-19T07:46:03;13.05;;;3.20;;
16906;SDS011;8570;52.380;4.654;2023-09-19T07:51:08;11.23;;;3.15;;
16906;SDS011;8570;52.380;4.654;2023-09-19T07:56:10;14.85;;;3.17;;
16906;SDS011;8570;52.380;4.654;2023-09-19T08:01:13;20.33;;;3.83;;
16906;SDS011;8570;52.380;4.654;2023-09-19T08:06:17;16.25;;;3.80;;
16906;SDS011;8570;52.380;4.654;2023-09-19T08:11:20;11.88;;;3.67;;
16906;SDS011;8570;52.380;4.654;2023-09-19T08:16:24;13.55;;;3.47;;
16906;SDS011;8570;52.380;4.654;2023-09-19T08:21:27;14.15;;;3.38;;
16906;SDS011;8570;52.380;4.654;2023-09-19T08:26:30;13.38;;;3.20;;
16906;SDS011;8570;52.380;4.654;2023-09-19T08:31:32;18.20;;;2.83;;
16906;SDS011;8570;52.380;4.654;2023-09-19T08:36:35;12.75;;;3.28;;
16906;SDS011;8570;52.380;4.654;2023-09-19T08:41:38;12.05;;;3.50;;
16906;SDS011;8570;52.380;4.654;2023-09-19T08:46:41;12.63;;;3.25;;
16906;SDS011;8570;52.380;4.654;2023-09-19T08:51:46;19.15;;;3.75;;
16906;SDS011;8570;52.380;4.654;2023-09-19T08:56:53;21.42;;;4.28;;
16906;SDS011;8570;52.380;4.654;2023-09-19T09:01:55;14.30;;;3.58;;
16906;SDS011;8570;52.380;4.654;2023-09-19T09:07:00;13.65;;;3.75;;
16906;SDS011;8570;52.380;4.654;2023-09-19T09:12:04;11.48;;;3.72;;
16906;SDS011;8570;52.380;4.654;2023-09-19T09:17:07;14.07;;;3.75;;
16906;SDS011;8570;52.380;4.654;2023-09-19T09:22:11;13.57;;;4.45;;
16906;SDS011;8570;52.380;4.654;2023-09-19T09:27:13;10.70;;;3.22;;
16906;SDS011;8570;52.380;4.654;2023-09-19T09:32:22;13.68;;;3.53;;
16906;SDS011;8570;52.380;4.654;2023-09-19T09:37:27;14.75;;;3.45;;
16906;SDS011;8570;52.380;4.654;2023-09-19T09:42:31;16.17;;;3.58;;
16906;SDS011;8570;52.380;4.654;2023-09-19T09:47:40;14.68;;;4.57;;
16906;SDS011;8570;52.380;4.654;2023-09-19T09:52:51;14.90;;;4.35;;
16906;SDS011;8570;52.380;4.654;2023-09-19T09:58:02;17.42;;;4.20;;
16906;SDS011;8570;52.380;4.654;2023-09-19T10:03:19;14.15;;;3.60;;
16906;SDS011;8570;52.380;4.654;2023-09-19T10:08:24;14.32;;;3.47;;
16906;SDS011;8570;52.380;4.654;2023-09-19T10:13:31;17.70;;;3.30;;
16906;SDS011;8570;52.380;4.654;2023-09-19T10:18:37;18.00;;;3.65;;
16906;SDS011;8570;52.380;4.654;2023-09-19T10:23:43;11.85;;;3.22;;
16906;SDS011;8570;52.380;4.654;2023-09-19T10:28:46;15.52;;;3.45;;
16906;SDS011;8570;52.380;4.654;2023-09-19T10:33:50;13.80;;;3.10;;
16906;SDS011;8570;52.380;4.654;2023-09-19T10:38:56;10.07;;;2.53;;
16906;SDS011;8570;52.380;4.654;2023-09-19T10:44:02;9.68;;;2.67;;
16906;SDS011;8570;52.380;4.654;2023-09-19T10:49:07;11.48;;;2.67;;
16906;SDS011;8570;52.380;4.654;2023-09-19T10:54:14;8.88;;;2.60;;
16906;SDS011;8570;52.380;4.654;2023-09-19T10:59:20;10.20;;;2.92;;
16906;SDS011;8570;52.380;4.654;2023-09-19T11:04:24;11.85;;;2.90;;
16906;SDS011;8570;52.380;4.654;2023-09-19T11:09:44;8.50;;;2.42;;
16906;SDS011;8570;52.380;4.654;2023-09-19T11:14:47;7.90;;;2.47;;
16906;SDS011;8570;52.380;4.654;2023-09-19T11:25:43;12.32;;;2.88;;
16906;SDS011;8570;52.380;4.654;2023-09-19T11:30:48;6.65;;;2.25;;
16906;SDS011;8570;52.380;4.654;2023-09-19T11:36:00;10.30;;;2.63;;
16906;SDS011;8570;52.380;4.654;2023-09-19T11:46:51;7.78;;;2.38;;
16906;SDS011;8570;52.380;4.654;2023-09-19T11:51:54;8.70;;;2.20;;
16906;SDS011;8570;52.380;4.654;2023-09-19T11:56:59;9.38;;;2.38;;
16906;SDS011;8570;52.380;4.654;2023-09-19T12:02:04;8.75;;;2.30;;
16906;SDS011;8570;52.380;4.654;2023-09-19T12:07:09;7.47;;;2.22;;
16906;SDS011;8570;52.380;4.654;2023-09-19T12:12:20;8.70;;;2.03;;
16906;SDS011;8570;52.380;4.654;2023-09-19T12:17:23;7.53;;;2.30;;
16906;SDS011;8570;52.380;4.654;2023-09-19T12:22:25;7.38;;;2.03;;
16906;SDS011;8570;52.380;4.654;2023-09-19T12:27:44;8.05;;;2.15;;
16906;SDS011;8570;52.380;4.654;2023-09-19T12:32:47;7.97;;;2.58;;
16906;SDS011;8570;52.380;4.654;2023-09-19T12:37:51;13.20;;;2.83;;
16906;SDS011;8570;52.380;4.654;2023-09-19T12:42:56;12.57;;;3.20;;
16906;SDS011;8570;52.380;4.654;2023-09-19T12:48:18;14.98;;;3.17;;
16906;SDS011;8570;52.380;4.654;2023-09-19T12:53:24;14.07;;;3.35;;
16906;SDS011;8570;52.380;4.654;2023-09-19T12:58:30;17.10;;;3.42;;
16906;SDS011;8570;52.380;4.654;2023-09-19T13:03:33;21.42;;;3.30;;
16906;SDS011;8570;52.380;4.654;2023-09-19T13:08:36;15.18;;;3.30;;
16906;SDS011;8570;52.380;4.654;2023-09-19T13:13:41;19.17;;;4.05;;
16906;SDS011;8570;52.380;4.654;2023-09-19T13:18:50;13.40;;;3.47;;
16906;SDS011;8570;52.380;4.654;2023-09-19T13:23:54;16.08;;;3.90;;
16906;SDS011;8570;52.380;4.654;2023-09-19T13:29:00;12.50;;;3.03;;
16906;SDS011;8570;52.380;4.654;2023-09-19T13:34:02;13.80;;;3.50;;
16906;SDS011;8570;52.380;4.654;2023-09-19T13:39:04;17.80;;;3.63;;
16906;SDS011;8570;52.380;4.654;2023-09-19T13:44:10;15.38;;;3.45;;
16906;SDS011;8570;52.380;4.654;2023-09-19T13:49:12;17.20;;;3.72;;
16906;SDS011;8570;52.380;4.654;2023-09-19T13:54:14;18.35;;;4.22;;
16906;SDS011;8570;52.380;4.654;2023-09-19T13:59:17;25.13;;;4.90;;
16906;SDS011;8570;52.380;4.654;2023-09-19T14:04:21;18.40;;;4.65;;
16906;SDS011;8570;52.380;4.654;2023-09-19T14:09:23;22.73;;;5.10;;
16906;SDS011;8570;52.380;4.654;2023-09-19T14:14:26;14.10;;;4.18;;
16906;SDS011;8570;52.380;4.654;2023-09-19T14:19:28;20.83;;;4.68;;
16906;SDS011;8570;52.380;4.654;2023-09-19T14:24:30;15.45;;;5.00;;
16906;SDS011;8570;52.380;4.654;2023-09-19T14:29:34;26.10;;;5.65;;
16906;SDS011;8570;52.380;4.654;2023-09-19T14:34:36;22.80;;;5.85;;
16906;SDS011;8570;52.380;4.654;2023-09-19T14:39:42;25.05;;;5.15;;
16906;SDS011;8570;52.380;4.654;2023-09-19T14:44:46;20.27;;;5.47;;
16906;SDS011;8570;52.380;4.654;2023-09-19T14:49:48;24.27;;;5.07;;
16906;SDS011;8570;52.380;4.654;2023-09-19T14:54:50;19.88;;;4.53;;
16906;SDS011;8570;52.380;4.654;2023-09-19T14:59:54;19.13;;;5.05;;
16906;SDS011;8570;52.380;4.654;2023-09-19T15:04:56;22.40;;;5.60;;
16906;SDS011;8570;52.380;4.654;2023-09-19T15:09:58;23.42;;;5.78;;
16906;SDS011;8570;52.380;4.654;2023-09-19T15:15:01;22.38;;;5.32;;
16906;SDS011;8570;52.380;4.654;2023-09-19T15:20:06;22.85;;;5.43;;
16906;SDS011;8570;52.380;4.654;2023-09-19T15:25:08;25.52;;;5.40;;
16906;SDS011;8570;52.380;4.654;2023-09-19T15:30:12;22.00;;;5.45;;
16906;SDS011;8570;52.380;4.654;2023-09-19T15:35:15;20.98;;;5.15;;
16906;SDS011;8570;52.380;4.654;2023-09-19T15:40:18;26.77;;;6.00;;
16906;SDS011;8570;52.380;4.654;2023-09-19T15:45:21;23.27;;;5.40;;
16906;SDS011;8570;52.380;4.654;2023-09-19T15:50:25;27.17;;;5.97;;
16906;SDS011;8570;52.380;4.654;2023-09-19T15:55:27;26.10;;;5.68;;
16906;SDS011;8570;52.380;4.654;2023-09-19T16:00:31;23.40;;;5.93;;
16906;SDS011;8570;52.380;4.654;2023-09-19T16:05:37;22.42;;;5.75;;
16906;SDS011;8570;52.380;4.654;2023-09-19T16:10:39;22.00;;;6.43;;
16906;SDS011;8570;52.380;4.654;2023-09-19T16:15:42;26.30;;;6.20;;
16906;SDS011;8570;52.380;4.654;2023-09-19T16:20:45;27.30;;;6.10;;
16906;SDS011;8570;52.380;4.654;2023-09-19T16:25:47;21.63;;;5.55;;
16906;SDS011;8570;52.380;4.654;2023-09-19T16:30:50;26.88;;;5.57;;
16906;SDS011;8570;52.380;4.654;2023-09-19T16:35:53;27.65;;;5.68;;
16906;SDS011;8570;52.380;4.654;2023-09-19T16:40:56;18.63;;;5.28;;
16906;SDS011;8570;52.380;4.654;2023-09-19T16:46:01;21.40;;;5.20;;
16906;SDS011;8570;52.380;4.654;2023-09-19T16:51:04;19.98;;;4.88;;
16906;SDS011;8570;52.380;4.654;2023-09-19T16:56:09;20.55;;;4.88;;
16906;SDS011;8570;52.380;4.654;2023-09-19T17:01:14;27.17;;;5.72;;
16906;SDS011;8570;52.380;4.654;2023-09-19T17:06:18;18.25;;;4.47;;
16906;SDS011;8570;52.380;4.654;2023-09-19T17:11:23;13.77;;;4.43;;
16906;SDS011;8570;52.380;4.654;2023-09-19T17:16:27;20.00;;;5.13;;
16906;SDS011;8570;52.380;4.654;2023-09-19T17:21:29;15.50;;;4.68;;
16906;SDS011;8570;52.380;4.654;2023-09-19T17:26:31;13.50;;;4.15;;
16906;SDS011;8570;52.380;4.654;2023-09-19T17:31:35;12.48;;;4.00;;
16906;SDS011;8570;52.380;4.654;2023-09-19T17:36:38;14.05;;;4.45;;
16906;SDS011;8570;52.380;4.654;2023-09-19T17:41:42;11.88;;;4.32;;
16906;SDS011;8570;52.380;4.654;2023-09-19T17:46:46;10.98;;;3.70;;
16906;SDS011;8570;52.380;4.654;2023-09-19T17:51:48;12.10;;;3.70;;
16906;SDS011;8570;52.380;4.654;2023-09-19T17:56:50;10.70;;;3.40;;
16906;SDS011;8570;52.380;4.654;2023-09-19T18:01:53;9.48;;;3.60;;
16906;SDS011;8570;52.380;4.654;2023-09-19T18:06:55;9.85;;;3.40;;
16906;SDS011;8570;52.380;4.654;2023-09-19T18:11:57;12.48;;;3.70;;
16906;SDS011;8570;52.380;4.654;2023-09-19T18:17:00;12.93;;;4.00;;
16906;SDS011;8570;52.380;4.654;2023-09-19T18:22:03;7.75;;;3.30;;
16906;SDS011;8570;52.380;4.654;2023-09-19T18:27:05;9.30;;;4.05;;
16906;SDS011;8570;52.380;4.654;2023-09-19T18:32:08;11.02;;;3.88;;
16906;SDS011;8570;52.380;4.654;2023-09-19T18:37:10;11.15;;;3.75;;
16906;SDS011;8570;52.380;4.654;2023-09-19T18:42:12;10.38;;;3.85;;
16906;SDS011;8570;52.380;4.654;2023-09-19T18:47:15;11.38;;;3.47;;
16906;SDS011;8570;52.380;4.654;2023-09-19T18:52:17;13.77;;;3.83;;
16906;SDS011;8570;52.380;4.654;2023-09-19T18:57:19;9.35;;;3.95;;
16906;SDS011;8570;52.380;4.654;2023-09-19T19:02:23;7.72;;;4.32;;
16906;SDS011;8570;52.380;4.654;2023-09-19T19:07:25;11.85;;;4.63;;
16906;SDS011;8570;52.380;4.654;2023-09-19T19:12:27;11.82;;;4.10;;
16906;SDS011;8570;52.380;4.654;2023-09-19T19:17:34;15.27;;;4.45;;
16906;SDS011;8570;52.380;4.654;2023-09-19T19:22:37;11.32;;;5.20;;
16906;SDS011;8570;52.380;4.654;2023-09-19T19:27:41;11.00;;;4.93;;
16906;SDS011;8570;52.380;4.654;2023-09-19T19:32:44;11.98;;;5.15;;
16906;SDS011;8570;52.380;4.654;2023-09-19T19:37:46;14.27;;;5.10;;
16906;SDS011;8570;52.380;4.654;2023-09-19T19:42:49;14.63;;;5.18;;
16906;SDS011;8570;52.380;4.654;2023-09-19T19:47:52;15.60;;;4.88;;
16906;SDS011;8570;52.380;4.654;2023-09-19T19:52:54;12.98;;;5.35;;
16906;SDS011;8570;52.380;4.654;2023-09-19T19:57:57;13.73;;;4.60;;
16906;SDS011;8570;52.380;4.654;2023-09-19T20:03:00;12.25;;;4.70;;
16906;SDS011;8570;52.380;4.654;2023-09-19T20:08:04;14.10;;;5.25;;
16906;SDS011;8570;52.380;4.654;2023-09-19T20:13:06;12.85;;;6.00;;
16906;SDS011;8570;52.380;4.654;2023-09-19T20:18:10;13.75;;;5.22;;
16906;SDS011;8570;52.380;4.654;2023-09-19T20:23:12;12.35;;;5.03;;
16906;SDS011;8570;52.380;4.654;2023-09-19T20:28:14;17.95;;;4.88;;
16906;SDS011;8570;52.380;4.654;2023-09-19T20:33:18;15.30;;;4.30;;
16906;SDS011;8570;52.380;4.654;2023-09-19T20:38:24;13.93;;;4.68;;
16906;SDS011;8570;52.380;4.654;2023-09-19T20:43:28;15.00;;;4.03;;
16906;SDS011;8570;52.380;4.654;2023-09-19T20:48:34;14.50;;;4.72;;
16906;SDS011;8570;52.380;4.654;2023-09-19T20:53:36;10.55;;;4.55;;
16906;SDS011;8570;52.380;4.654;2023-09-19T20:58:39;14.68;;;4.88;;
16906;SDS011;8570;52.380;4.654;2023-09-19T21:03:42;16.17;;;4.55;;
16906;SDS011;8570;52.380;4.654;2023-09-19T21:08:44;15.80;;;4.93;;
16906;SDS011;8570;52.380;4.654;2023-09-19T21:13:47;18.58;;;4.70;;
16906;SDS011;8570;52.380;4.654;2023-09-19T21:18:51;12.45;;;4.70;;
16906;SDS011;8570;52.380;4.654;2023-09-19T21:23:53;17.90;;;4.93;;
16906;SDS011;8570;52.380;4.654;2023-09-19T21:28:55;15.40;;;4.68;;
16906;SDS011;8570;52.380;4.654;2023-09-19T21:33:59;14.90;;;4.68;;
16906;SDS011;8570;52.380;4.654;2023-09-19T21:39:03;21.13;;;5.88;;
16906;SDS011;8570;52.380;4.654;2023-09-19T21:44:05;15.52;;;4.25;;
16906;SDS011;8570;52.380;4.654;2023-09-19T21:49:08;17.13;;;4.97;;
16906;SDS011;8570;52.380;4.654;2023-09-19T21:54:10;16.17;;;4.63;;
16906;SDS011;8570;52.380;4.654;2023-09-19T21:59:12;12.70;;;4.65;;
16906;SDS011;8570;52.380;4.654;2023-09-19T22:04:16;15.85;;;4.88;;
16906;SDS011;8570;52.380;4.654;2023-09-19T22:09:18;13.00;;;4.18;;
16906;SDS011;8570;52.380;4.654;2023-09-19T22:14:20;13.38;;;4.05;;
16906;SDS011;8570;52.380;4.654;2023-09-19T22:19:30;12.48;;;4.13;;
16906;SDS011;8570;52.380;4.654;2023-09-19T22:24:32;19.95;;;4.78;;
16906;SDS011;8570;52.380;4.654;2023-09-19T22:29:35;15.55;;;4.53;;
16906;SDS011;8570;52.380;4.654;2023-09-19T22:34:44;20.85;;;4.80;;
16906;SDS011;8570;52.380;4.654;2023-09-19T22:39:48;14.18;;;4.15;;
16906;SDS011;8570;52.380;4.654;2023-09-19T22:44:51;13.55;;;5.18;;
16906;SDS011;8570;52.380;4.654;2023-09-19T22:49:56;12.48;;;4.75;;
16906;SDS011;8570;52.380;4.654;2023-09-19T22:54:59;15.77;;;5.45;;
16906;SDS011;8570;52.380;4.654;2023-09-19T23:00:02;15.93;;;6.03;;
16906;SDS011;8570;52.380;4.654;2023-09-19T23:05:07;19.60;;;5.65;;
16906;SDS011;8570;52.380;4.654;2023-09-19T23:10:16;14.32;;;6.00;;
16906;SDS011;8570;52.380;4.654;2023-09-19T23:15:18;19.73;;;5.18;;
16906;SDS011;8570;52.380;4.654;2023-09-19T23:20:27;25.73;;;5.55;;
16906;SDS011;8570;52.380;4.654;2023-09-19T23:25:36;16.55;;;5.15;;
16906;SDS011;8570;52.380;4.654;2023-09-19T23:30:47;20.90;;;4.65;;
16906;SDS011;8570;52.380;4.654;2023-09-19T23:35:54;16.90;;;4.97;;
16906;SDS011;8570;52.380;4.654;2023-09-19T23:40:56;20.85;;;5.53;;
16906;SDS011;8570;52.380;4.654;2023-09-19T23:45:58;24.33;;;5.30;;
16906;SDS011;8570;52.380;4.654;2023-09-19T23:51:06;18.05;;;5.05;;
16906;SDS011;8570;52.380;4.654;2023-09-19T23:56:09;22.00;;;5.40;;
